Data for 05/10/2013

Time Sea-Level Adjusted Pressure Absolute Pressure Temperature Relative Humidity Dew Point Precipitation   
(mb) (inHg) (mb) (inHg) (C) (F) (%) (C) (F) (mm) (in)
00:05 1025 30.27 854 25.22 5.4 41.8 73 0.9 33.7 0 0
00:10 1025 30.27 854 25.22 5.9 42.6 70 0.8 33.5 0 0
00:15 1025 30.27 854 25.22 6.2 43.1 69 1 33.9 0 0
00:20 1025 30.27 854 25.22 5.8 42.4 70 0.8 33.5 0 0
00:25 1025 30.27 854 25.22 6.3 43.4 68 0.8 33.4 0 0
00:30 1025 30.27 854 25.22 6.6 44 68 1.1 34 0 0
00:35 1025 30.27 854 25.22 6.5 43.6 68 1.1 33.9 0 0
00:40 1025 30.27 854 25.22 6.2 43.2 69 1 33.8 0 0
00:45 1025 30.27 854 25.22 6 42.9 71 1.2 34.1 0 0
00:50 1025 30.27 854 25.22 6.1 43.1 69 0.9 33.6 0 0
00:55 1025 30.27 854 25.22 7.2 44.9 65 1.1 34 0 0
01:00 1025 30.27 854 25.22 7.7 45.8 63 1.1 34 0 0
01:05 1025 30.27 854 25.22 7.9 46.2 63 1.3 34.4 0 0
01:10 1025 30.27 854 25.22 7.9 46.2 62 1 33.8 0 0
01:15 1025 30.27 854 25.22 7.9 46.2 64 1.5 34.7 0 0
01:20 1025 30.27 854 25.22 7.4 45.3 67 1.6 34.9 0 0
01:25 1025 30.27 854 25.22 6.3 43.3 72 1.5 34.7 0 0
01:30 1025 30.27 854 25.22 5.6 42.1 72 0.9 33.7 0 0
01:35 1025 30.27 854 25.22 5.8 42.4 71 0.9 33.6 0 0
01:40 1025 30.27 854 25.22 6.1 43.1 68 0.8 33.4 0 0
01:45 1025 30.27 855 25.25 6.3 43.4 69 1.1 34 0 0
01:50 1025 30.27 855 25.25 6.3 43.3 70 1.3 34.3 0 0
01:55 1025 30.27 855 25.25 5.8 42.5 71 1.1 33.9 0 0
02:00 1025 30.27 855 25.25 5.3 41.5 74 1 33.9 0 0
02:05 1025 30.27 854 25.22 5.4 41.7 68 0.1 32.1 0 0
02:10 1025 30.27 854 25.22 6 42.9 70 0.9 33.7 0 0
02:15 1025 30.27 854 25.22 6.1 43 70 1.1 33.9 0 0
02:20 1025 30.27 854 25.22 5.9 42.6 68 0.6 33 0 0
02:25 1025 30.27 854 25.22 6.5 43.7 66 0.6 33.1 0 0
02:30 1025 30.27 855 25.25 6.7 44 68 1.1 34 0 0
02:35 1025 30.27 855 25.25 5.8 42.5 71 1 33.8 0 0
02:40 1026 30.3 855 25.25 4.9 40.9 73 0.5 32.9 0 0
02:45 1026 30.3 855 25.25 5.1 41.2 71 0.4 32.7 0 0
02:50 1025 30.27 855 25.25 5 41 72 0.4 32.6 0 0
02:55 1025 30.27 855 25.25 5 41 73 0.5 32.9 0 0
03:00 1026 30.3 855 25.25 5.2 41.3 72 0.6 33 0 0
03:05 1026 30.3 855 25.25 5.6 42 71 0.8 33.4 0 0
03:10 1026 30.3 855 25.25 6.1 42.9 68 0.6 33.1 0 0
03:15 1026 30.3 855 25.25 6.8 44.2 66 0.9 33.5 0 0
03:20 1026 30.3 855 25.25 6.5 43.7 67 0.8 33.5 0 0
03:25 1026 30.3 855 25.25 6.4 43.6 67 0.8 33.5 0 0
03:30 1026 30.3 855 25.25 6.7 44.1 68 1.2 34.1 0 0
03:35 1026 30.3 855 25.25 6.4 43.4 67 0.8 33.4 0 0
03:40 1026 30.3 855 25.25 6.7 44.1 68 1.3 34.4 0 0
03:45 1026 30.3 855 25.25 6.7 44 68 1.2 34.2 0 0
03:50 1026 30.3 855 25.25 6.7 44 68 1.3 34.3 0 0
03:55 1026 30.3 855 25.25 6.8 44.3 65 0.8 33.4 0 0
04:00 1026 30.3 855 25.25 7.2 45 66 1.4 34.6 0 0
04:05 1026 30.3 855 25.25 6.9 44.3 68 1.4 34.6 0 0
04:10 1026 30.3 855 25.25 6.5 43.7 67 0.9 33.6 0 0
04:15 1026 30.3 855 25.25 6.9 44.3 64 0.6 33 0 0
04:20 1026 30.3 855 25.25 6.7 44 67 0.9 33.7 0 0
04:25 1026 30.3 855 25.25 5.8 42.5 71 0.9 33.7 0 0
04:30 1026 30.3 855 25.25 5.9 42.6 68 0.5 32.9 0 0
04:35 1026 30.3 855 25.25 5.7 42.3 71 0.9 33.7 0 0
04:40 1026 30.3 855 25.25 5.6 42.1 69 0.4 32.7 0 0
04:45 1026 30.3 855 25.25 5.6 42.2 69 0.3 32.6 0 0
04:50 1026 30.3 855 25.25 5.9 42.6 66 0.1 32.3 0 0
04:55 1026 30.3 855 25.25 4.4 39.9 76 0.5 33 0 0
05:00 1026 30.3 855 25.25 4.1 39.3 77 0.4 32.8 0 0
05:05 1026 30.3 855 25.25 4.3 39.8 77 0.7 33.2 0 0
05:10 1026 30.3 855 25.25 4.3 39.7 77 0.6 33 0 0
05:15 1026 30.3 855 25.25 4.4 40 75 0.4 32.8 0 0
05:20 1026 30.3 855 25.25 4.9 40.8 73 0.5 32.9 0 0
05:25 1026 30.3 855 25.25 5.8 42.4 70 0.7 33.2 0 0
05:30 1026 30.3 855 25.25 6 42.8 70 1 33.9 0 0
05:35 1026 30.3 855 25.25 5.9 42.6 70 0.8 33.4 0 0
05:40 1026 30.3 855 25.25 5.3 41.6 70 0.3 32.6 0 0
05:45 1026 30.3 856 25.28 4.6 40.3 74 0.4 32.8 0 0
05:50 1026 30.3 856 25.28 5.4 41.7 68 -0.1 31.8 0 0
05:55 1026 30.3 856 25.28 6.4 43.5 63 -0 32 0 0
06:00 1026 30.3 856 25.28 6.5 43.7 69 1.2 34.1 0 0
06:05 1026 30.3 856 25.28 5.3 41.5 66 -0.6 30.9 0 0
06:10 1026 30.3 856 25.28 3.6 38.5 76 -0.3 31.4 0 0
06:15 1026 30.3 856 25.28 2.8 37.1 79 -0.5 31 0 0
06:20 1026 30.3 856 25.28 3.1 37.5 79 -0.3 31.5 0 0
06:25 1027 30.33 856 25.28 2.4 36.4 81 -0.5 31.2 0 0
06:30 1027 30.33 856 25.28 3.1 37.5 81 0.1 32.2 0 0
06:35 1027 30.33 856 25.28 3.6 38.4 79 0.2 32.4 0 0
06:40 1027 30.33 856 25.28 3.9 39.1 77 0.3 32.5 0 0
06:45 1027 30.33 856 25.28 4.2 39.5 79 0.9 33.6 0 0
06:50 1027 30.33 856 25.28 4.5 40 78 1 33.9 0 0
06:55 1027 30.33 856 25.28 5.1 41.1 76 1.2 34.1 0 0
07:00 1027 30.33 856 25.28 5.7 42.3 73 1.2 34.2 0 0
07:05 1027 30.33 856 25.28 6.6 43.8 70 1.5 34.7 0 0
07:10 1027 30.33 856 25.28 7 44.7 73 2.6 36.7 0 0
07:15 1027 30.33 856 25.28 7.4 45.2 73 2.8 37 0 0
07:20 1027 30.33 856 25.28 7.8 46 69 2.4 36.3 0 0
07:25 1027 30.33 856 25.28 8.3 46.9 67 2.5 36.6 0 0
07:30 1027 30.33 856 25.28 8.9 48 62 2.1 35.7 0 0
07:35 1027 30.33 856 25.28 9.5 49.1 59 2 35.6 0 0
07:40 1027 30.33 856 25.28 9.9 49.7 58 2.1 35.8 0 0
07:45 1027 30.33 856 25.28 10.1 50.3 57 2.1 35.9 0 0
07:50 1027 30.33 856 25.28 10.5 50.9 57 2.5 36.4 0 0
07:55 1027 30.33 856 25.28 10.8 51.4 57 2.6 36.7 0 0
08:00 1027 30.33 856 25.28 11.1 51.9 55 2.3 36.2 0 0
08:05 1027 30.33 856 25.28 11.5 52.7 52 2.1 35.8 0 0
08:10 1027 30.33 856 25.28 11.9 53.4 51 2.2 35.9 0 0
08:15 1027 30.33 856 25.28 12.1 53.8 51 2.2 36 0 0
08:20 1027 30.33 856 25.28 12.4 54.2 53 3 37.4 0 0
08:25 1027 30.33 856 25.28 12.5 54.5 53 3.2 37.7 0 0
08:30 1027 30.33 856 25.28 12.9 55.3 52 3.3 38 0 0
08:35 1027 30.33 856 25.28 13.5 56.2 47 2.6 36.6 0 0
08:40 1027 30.33 857 25.31 14 57.2 45 2.2 36 0 0
08:45 1027 30.33 857 25.31 14.4 57.9 46 3 37.4 0 0
08:50 1027 30.33 857 25.31 14.6 58.4 44 2.6 36.6 0 0
08:55 1027 30.33 857 25.31 14.4 57.9 44 2.3 36.1 0 0
09:00 1028 30.36 857 25.31 14.6 58.2 44 2.5 36.5 0 0
09:05 1028 30.36 857 25.31 14.2 57.5 47 3.1 37.6 0 0
09:10 1028 30.36 857 25.31 14 57.2 47 3 37.5 0 0
09:15 1028 30.36 857 25.31 13.9 57 50 3.6 38.5 0 0
09:20 1028 30.36 857 25.31 13.8 56.8 50 3.5 38.2 0 0
09:25 1028 30.36 857 25.31 13.6 56.4 52 3.9 39 0 0
09:30 1028 30.36 858 25.34 13.3 55.9 51 3.5 38.3 0 0
09:35 1028 30.36 858 25.34 13.2 55.8 51 3.4 38 0 0
09:40 1028 30.36 858 25.34 13.2 55.8 50 3 37.4 0 0
09:45 1029 30.39 858 25.34 13.3 55.9 51 3.5 38.2 0 0
09:50 1029 30.39 858 25.34 13.4 56 54 4.3 39.8 0 0
09:55 1029 30.39 858 25.34 13.6 56.5 49 3.2 37.8 0 0
10:00 1029 30.39 858 25.34 13.8 56.8 48 3 37.3 0 0
10:05 1029 30.39 858 25.34 14.2 57.5 46 2.8 37.1 0 0
10:10 1028 30.36 858 25.34 14.6 58.2 45 2.9 37.3 0 0
10:15 1029 30.39 858 25.34 14.7 58.4 45 3 37.4 0 0
10:20 1029 30.39 858 25.34 14.9 58.8 43 2.5 36.4 0 0
10:25 1029 30.39 858 25.34 15.3 59.5 46 3.7 38.7 0 0
10:30 1029 30.39 858 25.34 15.4 59.6 44 3.1 37.6 0 0
10:35 1029 30.39 858 25.34 15.2 59.4 45 3.5 38.2 0 0
10:40 1029 30.39 858 25.34 15.3 59.6 43 3 37.5 0 0
10:45 1029 30.39 858 25.34 15.6 60 43 3.2 37.7 0 0
10:50 1029 30.39 858 25.34 15.7 60.2 46 4.3 39.7 0 0
10:55 1029 30.39 858 25.34 16.1 61 46 4.6 40.3 0 0
11:00 1029 30.39 858 25.34 16.2 61.1 44 4 39.3 0 0
11:05 1029 30.39 858 25.34 16.3 61.3 40 2.7 36.9 0 0
11:10 1029 30.39 858 25.34 16.5 61.6 41 3.2 37.8 0 0
11:15 1029 30.39 858 25.34 16.4 61.6 36 1.5 34.7 0 0
11:20 1029 30.39 858 25.34 16.5 61.8 34 0.8 33.5 0 0
11:25 1029 30.39 858 25.34 16.3 61.4 42 3.7 38.6 0 0
11:30 1029 30.39 858 25.34 16.6 61.8 43 4.1 39.4 0 0
11:35 1029 30.39 858 25.34 16.8 62.2 44 4.5 40.1 0 0
11:40 1029 30.39 858 25.34 17.1 62.8 41 3.9 39 0 0
11:45 1029 30.39 858 25.34 16.6 61.9 42 3.7 38.7 0 0
11:50 1029 30.39 858 25.34 16.6 61.9 45 4.7 40.5 0 0
11:55 1029 30.39 858 25.34 16.9 62.4 37 2.4 36.3 0 0
12:00 1029 30.39 858 25.34 16.8 62.2 42 4 39.2 0 0
12:05 1029 30.39 858 25.34 17.3 63.2 37 2.8 37 0 0
12:10 1029 30.39 858 25.34 17.1 62.8 37 2.6 36.6 0 0
12:15 1029 30.39 858 25.34 17.3 63.1 46 5.5 42 0 0
12:20 1029 30.39 858 25.34 17.4 63.4 38 3 37.4 0 0
12:25 1029 30.39 858 25.34 17.2 63 41 4 39.2 0 0
12:30 1029 30.39 858 25.34 17.2 62.9 38 2.8 37.1 0 0
12:35 1029 30.39 858 25.34 17.2 63 42 4.4 39.9 0 0
12:40 1029 30.39 858 25.34 17.5 63.4 38 3.2 37.7 0 0
12:45 1029 30.39 858 25.34 17.4 63.4 36 2.2 35.9 0 0
12:50 1029 30.39 858 25.34 17.4 63.3 40 3.7 38.7 0 0
12:55 1029 30.39 858 25.34 17.7 63.9 39 3.5 38.4 0 0
13:00 1029 30.39 858 25.34 17.7 63.8 39 3.8 38.9 0 0
13:05 1029 30.39 858 25.34 17.4 63.3 37 2.5 36.6 0 0
13:10 1029 30.39 858 25.34 17.3 63.1 38 3 37.4 0 0
13:15 1029 30.39 858 25.34 17.4 63.3 40 3.7 38.6 0 0
13:20 1029 30.39 858 25.34 17.5 63.5 41 4.3 39.7 0 0
13:25 1029 30.39 858 25.34 17.3 63.2 36 2.2 36 0 0
13:30 1029 30.39 858 25.34 17.4 63.3 44 5 41.1 0 0
13:35 1029 30.39 858 25.34 17.4 63.2 37 2.5 36.4 0 0
13:40 1029 30.39 858 25.34 17.8 64.1 40 4.2 39.5 0 0
13:45 1029 30.39 858 25.34 17.8 64 32 1.1 33.9 0 0
13:50 1029 30.39 858 25.34 17.7 63.8 34 1.7 35.1 0 0
13:55 1029 30.39 858 25.34 17.5 63.6 34 1.7 35 0 0
14:00 1029 30.39 858 25.34 17.8 64 35 2.3 36.2 0 0
14:05 1029 30.39 858 25.34 17.7 63.8 36 2.6 36.7 0 0
14:10 1029 30.39 858 25.34 17.8 64 37 2.9 37.3 0 0
14:15 1029 30.39 858 25.34 17.8 64.1 37 3 37.5 0 0
14:20 1029 30.39 858 25.34 18 64.3 33 1.7 35 0 0
14:25 1029 30.39 858 25.34 17.8 64.1 38 3.6 38.5 0 0
14:30 1029 30.39 858 25.34 18.2 64.8 35 2.6 36.7 0 0
14:35 1029 30.39 858 25.34 18.4 65.2 32 1.4 34.6 0 0
14:40 1029 30.39 858 25.34 18.2 64.8 29 0.2 32.3 0 0
14:45 1029 30.39 858 25.34 18.3 65 29 0.2 32.4 0 0
14:50 1029 30.39 858 25.34 18.1 64.6 31 0.8 33.4 0 0
14:55 1029 30.39 858 25.34 18.3 65 29 0.3 32.5 0 0
15:00 1029 30.39 858 25.34 18.4 65.1 34 2.4 36.3 0 0
15:05 1028 30.36 858 25.34 18.8 65.8 29 0.6 33.1 0 0
15:10 1028 30.36 858 25.34 18.8 65.8 28 -0.1 31.8 0 0
15:15 1028 30.36 858 25.34 18.9 65.9 36 3.5 38.2 0 0
15:20 1028 30.36 858 25.34 19.2 66.5 28 0.4 32.7 0 0
15:25 1028 30.36 858 25.34 18.9 66.1 26 -1.1 30 0 0
15:30 1028 30.36 858 25.34 19 66.1 32 2.2 36 0 0
15:35 1028 30.36 857 25.31 19.5 67 26 -0.5 31.2 0 0
15:40 1028 30.36 857 25.31 19.5 67.1 27 0.1 32.3 0 0
15:45 1028 30.36 857 25.31 19.3 66.8 26 -0.3 31.5 0 0
15:50 1028 30.36 857 25.31 19.2 66.5 28 0.3 32.6 0 0
15:55 1028 30.36 857 25.31 19 66.2 29 0.9 33.6 0 0
16:00 1028 30.36 857 25.31 19.4 67 30 1.6 34.8 0 0
16:05 1028 30.36 857 25.31 19.7 67.5 26 0 32.1 0 0
16:10 1028 30.36 857 25.31 19.4 66.9 26 -0.5 31.2 0 0
16:15 1028 30.36 857 25.31 19.4 66.9 25 -1.1 30 0 0
16:20 1028 30.36 857 25.31 19.5 67.1 28 0.8 33.4 0 0
16:25 1028 30.36 857 25.31 19.7 67.4 29 1.3 34.4 0 0
16:30 1028 30.36 857 25.31 19.6 67.3 28 0.7 33.3 0 0
16:35 1028 30.36 857 25.31 19.4 66.8 27 0.2 32.3 0 0
16:40 1028 30.36 857 25.31 19.5 67 29 1.1 34 0 0
16:45 1028 30.36 857 25.31 19.4 66.9 28 0.8 33.4 0 0
16:50 1028 30.36 857 25.31 19.4 66.8 31 1.9 35.4 0 0
16:55 1028 30.36 857 25.31 19.6 67.3 30 1.9 35.4 0 0
17:00 1028 30.36 857 25.31 19.7 67.5 27 0.3 32.5 0 0
17:05 1028 30.36 857 25.31 19.7 67.4 27 0.6 33 0 0
17:10 1028 30.36 857 25.31 19.8 67.6 24 -1 30.2 0 0
17:15 1028 30.36 857 25.31 19.8 67.6 23 -1.7 29 0 0
17:20 1028 30.36 857 25.31 19.8 67.6 27 0.3 32.6 0 0
17:25 1028 30.36 857 25.31 19.9 67.7 27 0.7 33.2 0 0
17:30 1028 30.36 857 25.31 19.9 67.7 28 1.1 33.9 0 0
17:35 1028 30.36 857 25.31 19.7 67.5 25 -0.5 31.1 0 0
17:40 1028 30.36 857 25.31 19.7 67.5 25 -0.8 30.5 0 0
17:45 1028 30.36 857 25.31 19.6 67.2 24 -1.1 30 0 0
17:50 1028 30.36 857 25.31 19.6 67.4 24 -1.5 29.4 0 0
17:55 1028 30.36 857 25.31 19.8 67.6 22 -2.5 27.5 0 0
18:00 1028 30.36 857 25.31 20 67.9 25 -0.4 31.2 0 0
18:05 1028 30.36 857 25.31 20 67.9 24 -1.2 29.9 0 0
18:10 1027 30.33 857 25.31 19.9 67.8 24 -1.4 29.5 0 0
18:15 1028 30.36 857 25.31 20.1 68.1 22 -2.2 28.1 0 0
18:20 1028 30.36 857 25.31 19.7 67.4 24 -1.2 29.8 0 0
18:25 1027 30.33 857 25.31 19.5 67.1 22 -2.4 27.7 0 0
18:30 1027 30.33 857 25.31 19.8 67.6 22 -2.1 28.2 0 0
18:35 1027 30.33 857 25.31 20 68 25 -0.2 31.6 0 0
18:40 1027 30.33 857 25.31 19.6 67.2 29 1.3 34.3 0 0
18:45 1027 30.33 856 25.28 19.6 67.3 22 -2.4 27.7 0 0
18:50 1027 30.33 857 25.31 19.9 67.7 25 -0.6 30.9 0 0
18:55 1027 30.33 857 25.31 19.6 67.2 25 -0.8 30.6 0 0
19:00 1027 30.33 857 25.31 19.3 66.7 24 -1.4 29.4 0 0
19:05 1027 30.33 857 25.31 19.3 66.7 25 -1.3 29.7 0 0
19:10 1027 30.33 857 25.31 19.6 67.2 23 -1.9 28.6 0 0
19:15 1027 30.33 857 25.31 19.7 67.4 24 -1.4 29.5 0 0
19:20 1027 30.33 857 25.31 19.9 67.8 28 1.2 34.2 0 0
19:25 1027 30.33 857 25.31 19.5 67.1 30 1.8 35.3 0 0
19:30 1027 30.33 857 25.31 19.3 66.7 27 0.1 32.1 0 0
19:35 1027 30.33 857 25.31 19.1 66.4 29 0.8 33.4 0 0
19:40 1027 30.33 857 25.31 18.9 66 27 -0.3 31.4 0 0
19:45 1027 30.33 857 25.31 19.2 66.5 27 -0.1 31.8 0 0
19:50 1028 30.36 857 25.31 19.4 66.8 30 1.3 34.4 0 0
19:55 1028 30.36 857 25.31 18.6 65.4 32 1.9 35.4 0 0
20:00 1028 30.36 857 25.31 17.6 63.7 35 2.2 36 0 0
20:05 1028 30.36 857 25.31 16.9 62.5 38 2.6 36.6 0 0
20:10 1028 30.36 857 25.31 16.5 61.6 38 2.2 35.9 0 0
20:15 1028 30.36 857 25.31 16.2 61.2 37 1.6 35 0 0
20:20 1028 30.36 857 25.31 16.2 61.2 37 1.6 34.9 0 0
20:25 1028 30.36 857 25.31 16 60.8 37 1.5 34.7 0 0
20:30 1028 30.36 857 25.31 15.8 60.4 37 1.2 34.2 0 0
20:35 1028 30.36 857 25.31 15.7 60.2 37 1 33.8 0 0
20:40 1028 30.36 857 25.31 15.6 60.1 37 1.1 34 0 0
20:45 1028 30.36 857 25.31 15.3 59.6 38 1 33.8 0 0
20:50 1028 30.36 857 25.31 15.3 59.5 38 1.2 34.2 0 0
20:55 1028 30.36 857 25.31 15.1 59.2 38 1.1 34 0 0
21:00 1028 30.36 857 25.31 15 59 38 1.1 33.9 0 0
21:05 1028 30.36 857 25.31 15 58.9 38 0.8 33.4 0 0
21:10 1028 30.36 857 25.31 14.8 58.7 39 1.1 34 0 0
21:15 1028 30.36 858 25.34 14.6 58.2 39 0.9 33.7 0 0
21:20 1028 30.36 858 25.34 14.4 57.9 38 0.4 32.8 0 0
21:25 1028 30.36 858 25.34 14.5 58.2 38 0.4 32.7 0 0
21:30 1029 30.39 858 25.34 14.4 57.9 39 0.7 33.2 0 0
21:35 1029 30.39 858 25.34 14.1 57.5 39 0.4 32.7 0 0
21:40 1029 30.39 858 25.34 14.1 57.4 39 0.5 32.8 0 0
21:45 1029 30.39 858 25.34 13.9 57.1 40 0.6 33 0 0
21:50 1029 30.39 858 25.34 13.7 56.7 40 0.3 32.6 0 0
21:55 1029 30.39 858 25.34 13.8 56.8 40 0.4 32.8 0 0
22:00 1029 30.39 858 25.34 13.6 56.5 39 -0.1 31.8 0 0
22:05 1029 30.39 858 25.34 13.7 56.6 39 -0 31.9 0 0
22:10 1029 30.39 858 25.34 13.5 56.3 39 -0.1 31.9 0 0
22:15 1029 30.39 858 25.34 13.4 56.2 39 -0 32 0 0
22:20 1029 30.39 858 25.34 13.2 55.8 40 -0 32 0 0
22:25 1029 30.39 859 25.37 13 55.4 41 0 32.1 0 0
22:30 1029 30.39 859 25.37 13.2 55.7 40 0 32.1 0 0
22:35 1029 30.39 859 25.37 13.1 55.5 41 0.1 32.2 0 0
22:40 1029 30.39 859 25.37 12.9 55.2 41 0.1 32.1 0 0
22:45 1029 30.39 859 25.37 12.8 55.1 41 0.1 32.1 0 0
22:50 1029 30.39 858 25.34 12.7 54.9 41 -0.1 31.8 0 0
22:55 1029 30.39 859 25.37 12.7 54.9 41 -0.3 31.5 0 0
23:00 1029 30.39 859 25.37 12.7 54.8 40 -0.6 30.9 0 0
23:05 1029 30.39 859 25.37 12.7 54.8 40 -0.5 31.1 0 0
23:10 1029 30.39 859 25.37 12.3 54.2 41 -0.4 31.3 0 0
23:15 1029 30.39 859 25.37 12.2 53.9 41 -0.5 31.2 0 0
23:20 1029 30.39 859 25.37 12 53.6 42 -0.6 31 0 0
23:25 1029 30.39 859 25.37 11.9 53.4 42 -0.7 30.8 0 0
23:30 1029 30.39 859 25.37 11.8 53.3 42 -0.5 31.1 0 0
23:35 1029 30.39 859 25.37 11.6 52.9 43 -0.6 30.9 0 0
23:40 1029 30.39 859 25.37 11.4 52.5 42 -0.9 30.4 0 0
23:45 1029 30.39 859 25.37 11.3 52.3 41 -1.3 29.7 0 0
23:50 1030 30.42 859 25.37 11.3 52.3 41 -1.4 29.5 0 0
23:55 1030 30.42 859 25.37 11.1 51.9 42 -1.3 29.6 0 0
24:00 1030 30.42 859 25.37 10.8 51.5 42 -1.5 29.4 0 0